sensor_id;sensor_type;location;lat;lon;timestamp;P1;durP1;ratioP1;P2;durP2;ratioP2
12114;SDS011;6121;49.810;6.418;2023-07-20T00:01:31;17.15;;;8.30;;
12114;SDS011;6121;49.810;6.418;2023-07-20T00:03:57;17.17;;;8.15;;
12114;SDS011;6121;49.810;6.418;2023-07-20T00:06:23;17.33;;;8.45;;
12114;SDS011;6121;49.810;6.418;2023-07-20T00:08:53;20.20;;;9.77;;
12114;SDS011;6121;49.810;6.418;2023-07-20T00:11:26;16.30;;;7.90;;
12114;SDS011;6121;49.810;6.418;2023-07-20T00:13:52;17.50;;;8.48;;
12114;SDS011;6121;49.810;6.418;2023-07-20T00:16:18;17.15;;;8.30;;
12114;SDS011;6121;49.810;6.418;2023-07-20T00:18:44;15.05;;;7.47;;
12114;SDS011;6121;49.810;6.418;2023-07-20T00:21:10;14.75;;;7.13;;
12114;SDS011;6121;49.810;6.418;2023-07-20T00:23:37;15.65;;;7.82;;
12114;SDS011;6121;49.810;6.418;2023-07-20T00:26:03;15.68;;;7.80;;
12114;SDS011;6121;49.810;6.418;2023-07-20T00:28:29;17.70;;;8.93;;
12114;SDS011;6121;49.810;6.418;2023-07-20T00:30:55;19.50;;;9.50;;
12114;SDS011;6121;49.810;6.418;2023-07-20T00:33:21;15.90;;;8.00;;
12114;SDS011;6121;49.810;6.418;2023-07-20T00:35:47;15.75;;;7.82;;
12114;SDS011;6121;49.810;6.418;2023-07-20T00:38:15;17.88;;;8.63;;
12114;SDS011;6121;49.810;6.418;2023-07-20T00:40:41;20.40;;;10.10;;
12114;SDS011;6121;49.810;6.418;2023-07-20T00:43:07;15.20;;;7.50;;
12114;SDS011;6121;49.810;6.418;2023-07-20T00:45:33;17.70;;;8.67;;
12114;SDS011;6121;49.810;6.418;2023-07-20T00:48:02;18.13;;;9.13;;
12114;SDS011;6121;49.810;6.418;2023-07-20T00:50:30;16.90;;;8.15;;
12114;SDS011;6121;49.810;6.418;2023-07-20T00:52:57;16.02;;;8.07;;
12114;SDS011;6121;49.810;6.418;2023-07-20T00:55:24;13.93;;;7.07;;
12114;SDS011;6121;49.810;6.418;2023-07-20T00:57:52;19.65;;;9.63;;
12114;SDS011;6121;49.810;6.418;2023-07-20T01:00:18;16.90;;;8.05;;
12114;SDS011;6121;49.810;6.418;2023-07-20T01:02:45;21.90;;;10.88;;
12114;SDS011;6121;49.810;6.418;2023-07-20T01:05:11;15.57;;;7.75;;
12114;SDS011;6121;49.810;6.418;2023-07-20T01:07:50;20.27;;;9.68;;
12114;SDS011;6121;49.810;6.418;2023-07-20T01:13:19;14.18;;;7.10;;
12114;SDS011;6121;49.810;6.418;2023-07-20T01:15:50;16.33;;;8.15;;
12114;SDS011;6121;49.810;6.418;2023-07-20T01:18:18;18.60;;;9.20;;
12114;SDS011;6121;49.810;6.418;2023-07-20T01:20:44;18.97;;;9.60;;
12114;SDS011;6121;49.810;6.418;2023-07-20T01:23:35;15.30;;;7.55;;
12114;SDS011;6121;49.810;6.418;2023-07-20T01:26:37;18.37;;;9.07;;
12114;SDS011;6121;49.810;6.418;2023-07-20T01:29:17;15.20;;;7.50;;
12114;SDS011;6121;49.810;6.418;2023-07-20T01:31:49;19.20;;;9.57;;
12114;SDS011;6121;49.810;6.418;2023-07-20T01:34:17;16.40;;;7.93;;
12114;SDS011;6121;49.810;6.418;2023-07-20T01:36:44;23.83;;;11.70;;
12114;SDS011;6121;49.810;6.418;2023-07-20T01:39:13;16.65;;;8.23;;
12114;SDS011;6121;49.810;6.418;2023-07-20T01:41:39;17.38;;;8.65;;
12114;SDS011;6121;49.810;6.418;2023-07-20T01:44:05;18.70;;;8.95;;
12114;SDS011;6121;49.810;6.418;2023-07-20T01:46:31;21.95;;;10.73;;
12114;SDS011;6121;49.810;6.418;2023-07-20T01:48:57;17.00;;;8.57;;
12114;SDS011;6121;49.810;6.418;2023-07-20T01:51:23;15.82;;;7.82;;
12114;SDS011;6121;49.810;6.418;2023-07-20T01:53:49;17.15;;;8.43;;
12114;SDS011;6121;49.810;6.418;2023-07-20T01:56:15;15.77;;;8.10;;
12114;SDS011;6121;49.810;6.418;2023-07-20T01:58:41;16.60;;;8.38;;
12114;SDS011;6121;49.810;6.418;2023-07-20T02:01:06;16.77;;;8.35;;
12114;SDS011;6121;49.810;6.418;2023-07-20T02:03:32;15.13;;;7.50;;
12114;SDS011;6121;49.810;6.418;2023-07-20T02:05:58;20.55;;;9.48;;
12114;SDS011;6121;49.810;6.418;2023-07-20T02:08:24;19.58;;;9.05;;
12114;SDS011;6121;49.810;6.418;2023-07-20T02:10:51;23.90;;;10.68;;
12114;SDS011;6121;49.810;6.418;2023-07-20T02:13:17;16.77;;;7.93;;
12114;SDS011;6121;49.810;6.418;2023-07-20T02:15:43;17.40;;;8.35;;
12114;SDS011;6121;49.810;6.418;2023-07-20T02:18:10;20.80;;;9.35;;
12114;SDS011;6121;49.810;6.418;2023-07-20T02:20:35;21.75;;;9.98;;
12114;SDS011;6121;49.810;6.418;2023-07-20T02:23:01;22.45;;;10.48;;
12114;SDS011;6121;49.810;6.418;2023-07-20T02:25:27;18.27;;;8.57;;
12114;SDS011;6121;49.810;6.418;2023-07-20T02:27:53;22.95;;;10.88;;
12114;SDS011;6121;49.810;6.418;2023-07-20T02:30:21;17.87;;;8.43;;
12114;SDS011;6121;49.810;6.418;2023-07-20T02:32:47;20.87;;;9.90;;
12114;SDS011;6121;49.810;6.418;2023-07-20T02:35:16;22.08;;;9.80;;
12114;SDS011;6121;49.810;6.418;2023-07-20T02:37:42;24.02;;;10.68;;
12114;SDS011;6121;49.810;6.418;2023-07-20T02:40:09;19.88;;;8.80;;
12114;SDS011;6121;49.810;6.418;2023-07-20T02:42:35;19.25;;;9.13;;
12114;SDS011;6121;49.810;6.418;2023-07-20T02:45:04;19.73;;;9.38;;
12114;SDS011;6121;49.810;6.418;2023-07-20T02:47:31;22.33;;;10.70;;
12114;SDS011;6121;49.810;6.418;2023-07-20T02:49:58;19.70;;;9.38;;
12114;SDS011;6121;49.810;6.418;2023-07-20T02:52:25;17.88;;;8.60;;
12114;SDS011;6121;49.810;6.418;2023-07-20T02:54:51;19.63;;;9.67;;
12114;SDS011;6121;49.810;6.418;2023-07-20T02:57:17;23.52;;;10.93;;
12114;SDS011;6121;49.810;6.418;2023-07-20T02:59:43;17.55;;;8.38;;
12114;SDS011;6121;49.810;6.418;2023-07-20T03:02:09;18.75;;;8.88;;
12114;SDS011;6121;49.810;6.418;2023-07-20T03:04:35;18.02;;;8.25;;
12114;SDS011;6121;49.810;6.418;2023-07-20T03:07:02;26.43;;;12.17;;
12114;SDS011;6121;49.810;6.418;2023-07-20T03:09:32;15.85;;;7.43;;
12114;SDS011;6121;49.810;6.418;2023-07-20T03:11:58;22.83;;;10.77;;
12114;SDS011;6121;49.810;6.418;2023-07-20T03:14:24;14.57;;;7.32;;
12114;SDS011;6121;49.810;6.418;2023-07-20T03:16:50;24.65;;;11.75;;
12114;SDS011;6121;49.810;6.418;2023-07-20T03:19:16;19.52;;;9.18;;
12114;SDS011;6121;49.810;6.418;2023-07-20T03:21:43;20.50;;;9.85;;
12114;SDS011;6121;49.810;6.418;2023-07-20T03:24:09;17.67;;;8.30;;
12114;SDS011;6121;49.810;6.418;2023-07-20T03:26:35;22.58;;;10.63;;
12114;SDS011;6121;49.810;6.418;2023-07-20T03:29:02;22.73;;;10.47;;
12114;SDS011;6121;49.810;6.418;2023-07-20T03:31:29;18.40;;;8.65;;
12114;SDS011;6121;49.810;6.418;2023-07-20T03:33:55;20.38;;;9.27;;
12114;SDS011;6121;49.810;6.418;2023-07-20T03:36:21;22.13;;;10.47;;
12114;SDS011;6121;49.810;6.418;2023-07-20T03:38:47;19.08;;;9.05;;
12114;SDS011;6121;49.810;6.418;2023-07-20T03:41:13;18.10;;;8.50;;
12114;SDS011;6121;49.810;6.418;2023-07-20T03:43:41;19.38;;;8.90;;
12114;SDS011;6121;49.810;6.418;2023-07-20T03:46:07;17.60;;;8.30;;
12114;SDS011;6121;49.810;6.418;2023-07-20T03:48:33;20.23;;;9.50;;
12114;SDS011;6121;49.810;6.418;2023-07-20T03:50:59;19.25;;;9.10;;
12114;SDS011;6121;49.810;6.418;2023-07-20T03:53:27;17.58;;;8.25;;
12114;SDS011;6121;49.810;6.418;2023-07-20T03:55:53;17.27;;;8.13;;
12114;SDS011;6121;49.810;6.418;2023-07-20T03:58:20;19.85;;;9.48;;
12114;SDS011;6121;49.810;6.418;2023-07-20T04:00:47;18.83;;;9.45;;
12114;SDS011;6121;49.810;6.418;2023-07-20T04:03:16;20.63;;;9.98;;
12114;SDS011;6121;49.810;6.418;2023-07-20T04:05:43;18.15;;;8.52;;
12114;SDS011;6121;49.810;6.418;2023-07-20T04:08:09;19.30;;;9.37;;
12114;SDS011;6121;49.810;6.418;2023-07-20T04:10:39;18.80;;;9.10;;
12114;SDS011;6121;49.810;6.418;2023-07-20T04:13:08;18.48;;;9.20;;
12114;SDS011;6121;49.810;6.418;2023-07-20T04:15:34;14.43;;;7.07;;
12114;SDS011;6121;49.810;6.418;2023-07-20T04:18:00;17.58;;;8.93;;
12114;SDS011;6121;49.810;6.418;2023-07-20T04:20:26;16.92;;;8.40;;
12114;SDS011;6121;49.810;6.418;2023-07-20T04:22:52;21.10;;;10.00;;
12114;SDS011;6121;49.810;6.418;2023-07-20T04:25:19;13.93;;;7.10;;
12114;SDS011;6121;49.810;6.418;2023-07-20T04:27:46;18.42;;;9.05;;
12114;SDS011;6121;49.810;6.418;2023-07-20T04:30:12;15.85;;;7.88;;
12114;SDS011;6121;49.810;6.418;2023-07-20T04:32:39;18.07;;;9.10;;
12114;SDS011;6121;49.810;6.418;2023-07-20T04:35:11;14.80;;;7.57;;
12114;SDS011;6121;49.810;6.418;2023-07-20T04:37:41;21.00;;;10.30;;
12114;SDS011;6121;49.810;6.418;2023-07-20T04:40:15;15.32;;;7.47;;
12114;SDS011;6121;49.810;6.418;2023-07-20T04:42:41;17.75;;;8.95;;
12114;SDS011;6121;49.810;6.418;2023-07-20T04:45:07;20.83;;;10.25;;
12114;SDS011;6121;49.810;6.418;2023-07-20T04:47:33;18.30;;;9.13;;
12114;SDS011;6121;49.810;6.418;2023-07-20T04:50:00;14.93;;;7.87;;
12114;SDS011;6121;49.810;6.418;2023-07-20T04:52:28;18.52;;;9.48;;
12114;SDS011;6121;49.810;6.418;2023-07-20T04:54:54;16.13;;;8.10;;
12114;SDS011;6121;49.810;6.418;2023-07-20T04:57:21;20.05;;;10.13;;
12114;SDS011;6121;49.810;6.418;2023-07-20T04:59:49;17.48;;;8.68;;
12114;SDS011;6121;49.810;6.418;2023-07-20T05:02:15;17.77;;;9.02;;
12114;SDS011;6121;49.810;6.418;2023-07-20T05:04:40;17.65;;;8.77;;
12114;SDS011;6121;49.810;6.418;2023-07-20T05:07:06;25.05;;;12.27;;
12114;SDS011;6121;49.810;6.418;2023-07-20T05:09:32;15.30;;;7.88;;
12114;SDS011;6121;49.810;6.418;2023-07-20T05:11:59;19.02;;;9.10;;
12114;SDS011;6121;49.810;6.418;2023-07-20T05:14:25;15.90;;;8.00;;
12114;SDS011;6121;49.810;6.418;2023-07-20T05:16:51;22.58;;;11.50;;
12114;SDS011;6121;49.810;6.418;2023-07-20T05:19:17;21.00;;;10.27;;
12114;SDS011;6121;49.810;6.418;2023-07-20T05:21:43;16.75;;;8.48;;
12114;SDS011;6121;49.810;6.418;2023-07-20T05:24:09;16.42;;;8.45;;
12114;SDS011;6121;49.810;6.418;2023-07-20T05:26:35;19.52;;;10.13;;
12114;SDS011;6121;49.810;6.418;2023-07-20T05:29:01;20.90;;;11.00;;
12114;SDS011;6121;49.810;6.418;2023-07-20T05:31:27;18.63;;;9.75;;
12114;SDS011;6121;49.810;6.418;2023-07-20T05:33:55;16.75;;;8.75;;
12114;SDS011;6121;49.810;6.418;2023-07-20T05:36:27;20.02;;;10.25;;
12114;SDS011;6121;49.810;6.418;2023-07-20T05:38:53;17.00;;;9.30;;
12114;SDS011;6121;49.810;6.418;2023-07-20T05:41:20;18.00;;;9.65;;
12114;SDS011;6121;49.810;6.418;2023-07-20T05:43:46;19.45;;;9.88;;
12114;SDS011;6121;49.810;6.418;2023-07-20T05:46:11;16.05;;;8.77;;
12114;SDS011;6121;49.810;6.418;2023-07-20T05:48:39;14.35;;;7.55;;
12114;SDS011;6121;49.810;6.418;2023-07-20T05:51:05;15.27;;;8.18;;
12114;SDS011;6121;49.810;6.418;2023-07-20T05:53:31;13.82;;;7.55;;
12114;SDS011;6121;49.810;6.418;2023-07-20T05:55:57;13.15;;;7.13;;
12114;SDS011;6121;49.810;6.418;2023-07-20T05:58:23;15.45;;;8.38;;
12114;SDS011;6121;49.810;6.418;2023-07-20T06:00:50;15.50;;;8.43;;
12114;SDS011;6121;49.810;6.418;2023-07-20T06:03:16;14.07;;;7.57;;
12114;SDS011;6121;49.810;6.418;2023-07-20T06:05:42;13.98;;;7.50;;
12114;SDS011;6121;49.810;6.418;2023-07-20T06:08:10;15.20;;;8.10;;
12114;SDS011;6121;49.810;6.418;2023-07-20T06:10:35;17.35;;;9.18;;
12114;SDS011;6121;49.810;6.418;2023-07-20T06:13:01;14.13;;;7.60;;
12114;SDS011;6121;49.810;6.418;2023-07-20T06:15:28;14.47;;;7.90;;
12114;SDS011;6121;49.810;6.418;2023-07-20T06:17:56;15.10;;;8.23;;
12114;SDS011;6121;49.810;6.418;2023-07-20T06:20:23;14.10;;;7.60;;
12114;SDS011;6121;49.810;6.418;2023-07-20T06:22:49;13.15;;;7.22;;
12114;SDS011;6121;49.810;6.418;2023-07-20T06:25:15;12.02;;;6.65;;
12114;SDS011;6121;49.810;6.418;2023-07-20T06:27:42;17.70;;;9.82;;
12114;SDS011;6121;49.810;6.418;2023-07-20T06:30:08;12.88;;;7.25;;
12114;SDS011;6121;49.810;6.418;2023-07-20T06:32:35;14.02;;;8.02;;
12114;SDS011;6121;49.810;6.418;2023-07-20T06:35:01;11.88;;;6.88;;
12114;SDS011;6121;49.810;6.418;2023-07-20T06:37:27;17.25;;;9.73;;
12114;SDS011;6121;49.810;6.418;2023-07-20T06:39:52;12.70;;;7.27;;
12114;SDS011;6121;49.810;6.418;2023-07-20T06:42:18;14.75;;;8.45;;
12114;SDS011;6121;49.810;6.418;2023-07-20T06:44:44;13.98;;;7.82;;
12114;SDS011;6121;49.810;6.418;2023-07-20T06:47:10;18.48;;;10.43;;
12114;SDS011;6121;49.810;6.418;2023-07-20T06:49:37;13.98;;;8.23;;
12114;SDS011;6121;49.810;6.418;2023-07-20T06:52:03;14.23;;;8.13;;
12114;SDS011;6121;49.810;6.418;2023-07-20T06:54:29;12.65;;;7.35;;
12114;SDS011;6121;49.810;6.418;2023-07-20T06:56:55;26.58;;;15.13;;
12114;SDS011;6121;49.810;6.418;2023-07-20T06:59:21;14.98;;;8.93;;
12114;SDS011;6121;49.810;6.418;2023-07-20T07:01:47;15.23;;;8.85;;
12114;SDS011;6121;49.810;6.418;2023-07-20T07:04:13;13.38;;;7.85;;
12114;SDS011;6121;49.810;6.418;2023-07-20T07:06:39;18.42;;;10.70;;
12114;SDS011;6121;49.810;6.418;2023-07-20T07:09:05;17.33;;;9.87;;
12114;SDS011;6121;49.810;6.418;2023-07-20T07:11:31;17.70;;;9.70;;
12114;SDS011;6121;49.810;6.418;2023-07-20T07:13:56;14.05;;;8.38;;
12114;SDS011;6121;49.810;6.418;2023-07-20T07:16:22;15.55;;;8.57;;
12114;SDS011;6121;49.810;6.418;2023-07-20T07:18:49;15.18;;;8.68;;
12114;SDS011;6121;49.810;6.418;2023-07-20T07:21:16;14.77;;;8.65;;
12114;SDS011;6121;49.810;6.418;2023-07-20T07:23:42;16.80;;;9.90;;
12114;SDS011;6121;49.810;6.418;2023-07-20T07:26:09;14.68;;;8.48;;
12114;SDS011;6121;49.810;6.418;2023-07-20T07:28:35;15.20;;;8.93;;
12114;SDS011;6121;49.810;6.418;2023-07-20T07:31:04;14.73;;;8.90;;
12114;SDS011;6121;49.810;6.418;2023-07-20T07:33:30;14.27;;;8.33;;
12114;SDS011;6121;49.810;6.418;2023-07-20T07:35:57;12.82;;;7.53;;
12114;SDS011;6121;49.810;6.418;2023-07-20T07:38:23;14.33;;;8.63;;
12114;SDS011;6121;49.810;6.418;2023-07-20T07:40:48;15.25;;;9.02;;
12114;SDS011;6121;49.810;6.418;2023-07-20T07:43:14;12.93;;;7.70;;
12114;SDS011;6121;49.810;6.418;2023-07-20T07:45:40;14.32;;;8.57;;
12114;SDS011;6121;49.810;6.418;2023-07-20T07:48:06;15.30;;;9.27;;
12114;SDS011;6121;49.810;6.418;2023-07-20T07:50:33;15.05;;;8.98;;
12114;SDS011;6121;49.810;6.418;2023-07-20T07:52:59;14.20;;;8.35;;
12114;SDS011;6121;49.810;6.418;2023-07-20T07:55:25;13.50;;;7.88;;
12114;SDS011;6121;49.810;6.418;2023-07-20T07:57:54;15.47;;;9.10;;
12114;SDS011;6121;49.810;6.418;2023-07-20T08:00:20;13.73;;;7.93;;
12114;SDS011;6121;49.810;6.418;2023-07-20T08:02:46;15.07;;;8.80;;
12114;SDS011;6121;49.810;6.418;2023-07-20T08:05:13;13.90;;;8.48;;
12114;SDS011;6121;49.810;6.418;2023-07-20T08:07:39;16.45;;;9.70;;
12114;SDS011;6121;49.810;6.418;2023-07-20T08:10:05;17.80;;;10.32;;
12114;SDS011;6121;49.810;6.418;2023-07-20T08:12:32;14.47;;;8.57;;
12114;SDS011;6121;49.810;6.418;2023-07-20T08:14:57;16.05;;;9.60;;
12114;SDS011;6121;49.810;6.418;2023-07-20T08:17:23;18.20;;;10.68;;
12114;SDS011;6121;49.810;6.418;2023-07-20T08:19:49;16.40;;;9.25;;
12114;SDS011;6121;49.810;6.418;2023-07-20T08:22:15;13.47;;;8.17;;
12114;SDS011;6121;49.810;6.418;2023-07-20T08:24:41;16.30;;;9.60;;
12114;SDS011;6121;49.810;6.418;2023-07-20T08:27:08;19.83;;;11.83;;
12114;SDS011;6121;49.810;6.418;2023-07-20T08:29:34;12.25;;;7.47;;
12114;SDS011;6121;49.810;6.418;2023-07-20T08:32:01;15.63;;;9.38;;
12114;SDS011;6121;49.810;6.418;2023-07-20T08:34:27;15.60;;;9.43;;
12114;SDS011;6121;49.810;6.418;2023-07-20T08:36:53;18.88;;;11.80;;
12114;SDS011;6121;49.810;6.418;2023-07-20T08:39:19;13.18;;;8.38;;
12114;SDS011;6121;49.810;6.418;2023-07-20T08:41:47;16.08;;;9.98;;
12114;SDS011;6121;49.810;6.418;2023-07-20T08:44:13;14.55;;;8.93;;
12114;SDS011;6121;49.810;6.418;2023-07-20T08:46:40;17.13;;;10.75;;
12114;SDS011;6121;49.810;6.418;2023-07-20T08:49:08;13.93;;;8.57;;
12114;SDS011;6121;49.810;6.418;2023-07-20T08:51:36;13.75;;;8.75;;
12114;SDS011;6121;49.810;6.418;2023-07-20T08:54:03;14.95;;;9.23;;
12114;SDS011;6121;49.810;6.418;2023-07-20T08:56:29;13.93;;;8.90;;
12114;SDS011;6121;49.810;6.418;2023-07-20T08:58:59;16.13;;;10.38;;
12114;SDS011;6121;49.810;6.418;2023-07-20T09:01:26;16.93;;;11.00;;
12114;SDS011;6121;49.810;6.418;2023-07-20T09:03:53;20.10;;;12.57;;
12114;SDS011;6121;49.810;6.418;2023-07-20T09:06:19;15.23;;;9.70;;
12114;SDS011;6121;49.810;6.418;2023-07-20T09:08:45;14.60;;;9.48;;
12114;SDS011;6121;49.810;6.418;2023-07-20T09:11:11;15.23;;;9.40;;
12114;SDS011;6121;49.810;6.418;2023-07-20T09:13:38;16.08;;;10.15;;
12114;SDS011;6121;49.810;6.418;2023-07-20T09:16:06;14.32;;;9.55;;
12114;SDS011;6121;49.810;6.418;2023-07-20T09:18:32;15.73;;;10.48;;
12114;SDS011;6121;49.810;6.418;2023-07-20T09:21:03;14.15;;;9.20;;
12114;SDS011;6121;49.810;6.418;2023-07-20T09:23:31;16.27;;;10.50;;
12114;SDS011;6121;49.810;6.418;2023-07-20T09:25:57;15.40;;;9.88;;
12114;SDS011;6121;49.810;6.418;2023-07-20T09:28:23;14.95;;;9.85;;
12114;SDS011;6121;49.810;6.418;2023-07-20T09:30:49;16.20;;;10.13;;
12114;SDS011;6121;49.810;6.418;2023-07-20T09:33:19;14.20;;;9.25;;
12114;SDS011;6121;49.810;6.418;2023-07-20T09:35:47;13.83;;;9.33;;
12114;SDS011;6121;49.810;6.418;2023-07-20T09:38:12;16.67;;;10.55;;
12114;SDS011;6121;49.810;6.418;2023-07-20T09:40:42;16.27;;;10.80;;
12114;SDS011;6121;49.810;6.418;2023-07-20T09:43:08;13.70;;;9.23;;
12114;SDS011;6121;49.810;6.418;2023-07-20T09:45:35;16.38;;;10.75;;
12114;SDS011;6121;49.810;6.418;2023-07-20T09:48:06;16.08;;;10.93;;
12114;SDS011;6121;49.810;6.418;2023-07-20T09:50:33;16.27;;;10.90;;
12114;SDS011;6121;49.810;6.418;2023-07-20T09:53:00;16.63;;;10.65;;
12114;SDS011;6121;49.810;6.418;2023-07-20T09:55:27;16.17;;;10.40;;
12114;SDS011;6121;49.810;6.418;2023-07-20T09:57:54;16.33;;;10.57;;
12114;SDS011;6121;49.810;6.418;2023-07-20T10:00:22;14.18;;;9.18;;
12114;SDS011;6121;49.810;6.418;2023-07-20T10:02:47;15.60;;;10.40;;
12114;SDS011;6121;49.810;6.418;2023-07-20T10:05:16;13.63;;;9.00;;
12114;SDS011;6121;49.810;6.418;2023-07-20T10:07:47;16.95;;;11.05;;
12114;SDS011;6121;49.810;6.418;2023-07-20T10:10:15;14.32;;;9.50;;
12114;SDS011;6121;49.810;6.418;2023-07-20T10:12:42;16.55;;;10.65;;
12114;SDS011;6121;49.810;6.418;2023-07-20T10:15:13;13.75;;;9.02;;
12114;SDS011;6121;49.810;6.418;2023-07-20T10:18:03;16.17;;;10.50;;
12114;SDS011;6121;49.810;6.418;2023-07-20T10:20:35;13.55;;;8.52;;
12114;SDS011;6121;49.810;6.418;2023-07-20T10:26:00;13.00;;;8.57;;
12114;SDS011;6121;49.810;6.418;2023-07-20T10:28:35;24.05;;;11.20;;
12114;SDS011;6121;49.810;6.418;2023-07-20T10:31:02;41.08;;;13.68;;
12114;SDS011;6121;49.810;6.418;2023-07-20T10:33:28;34.10;;;12.38;;
12114;SDS011;6121;49.810;6.418;2023-07-20T10:36:00;36.00;;;12.75;;
12114;SDS011;6121;49.810;6.418;2023-07-20T10:41:16;28.60;;;10.85;;
12114;SDS011;6121;49.810;6.418;2023-07-20T10:43:43;31.08;;;12.40;;
12114;SDS011;6121;49.810;6.418;2023-07-20T10:46:11;29.45;;;11.88;;
12114;SDS011;6121;49.810;6.418;2023-07-20T10:48:59;31.80;;;12.75;;
12114;SDS011;6121;49.810;6.418;2023-07-20T10:51:29;28.02;;;11.68;;
12114;SDS011;6121;49.810;6.418;2023-07-20T10:53:56;34.83;;;13.35;;
12114;SDS011;6121;49.810;6.418;2023-07-20T10:56:27;34.55;;;13.75;;
12114;SDS011;6121;49.810;6.418;2023-07-20T10:59:00;33.30;;;13.50;;
12114;SDS011;6121;49.810;6.418;2023-07-20T11:01:29;27.53;;;11.30;;
12114;SDS011;6121;49.810;6.418;2023-07-20T11:03:57;33.00;;;13.18;;
12114;SDS011;6121;49.810;6.418;2023-07-20T11:09:04;29.63;;;12.00;;
12114;SDS011;6121;49.810;6.418;2023-07-20T11:11:31;27.38;;;11.57;;
12114;SDS011;6121;49.810;6.418;2023-07-20T11:14:00;29.42;;;12.07;;
12114;SDS011;6121;49.810;6.418;2023-07-20T11:19:03;30.50;;;12.75;;
12114;SDS011;6121;49.810;6.418;2023-07-20T11:21:37;28.30;;;12.02;;
12114;SDS011;6121;49.810;6.418;2023-07-20T11:24:06;29.85;;;12.35;;
12114;SDS011;6121;49.810;6.418;2023-07-20T11:26:45;31.83;;;13.15;;
12114;SDS011;6121;49.810;6.418;2023-07-20T11:29:13;31.77;;;13.33;;
12114;SDS011;6121;49.810;6.418;2023-07-20T11:31:41;29.77;;;12.32;;
12114;SDS011;6121;49.810;6.418;2023-07-20T11:34:10;35.47;;;14.43;;
12114;SDS011;6121;49.810;6.418;2023-07-20T11:36:41;34.38;;;13.60;;
12114;SDS011;6121;49.810;6.418;2023-07-20T11:39:08;33.63;;;13.45;;
12114;SDS011;6121;49.810;6.418;2023-07-20T11:44:23;30.42;;;12.80;;
12114;SDS011;6121;49.810;6.418;2023-07-20T11:47:04;37.22;;;15.30;;
12114;SDS011;6121;49.810;6.418;2023-07-20T11:49:37;27.77;;;11.77;;
12114;SDS011;6121;49.810;6.418;2023-07-20T11:52:04;30.90;;;12.93;;
12114;SDS011;6121;49.810;6.418;2023-07-20T11:54:32;32.67;;;13.40;;
12114;SDS011;6121;49.810;6.418;2023-07-20T11:57:02;40.70;;;17.05;;
12114;SDS011;6121;49.810;6.418;2023-07-20T11:59:28;34.38;;;14.07;;
12114;SDS011;6121;49.810;6.418;2023-07-20T12:01:56;32.67;;;13.65;;
12114;SDS011;6121;49.810;6.418;2023-07-20T12:04:22;30.43;;;12.83;;
12114;SDS011;6121;49.810;6.418;2023-07-20T12:06:48;38.55;;;16.17;;
12114;SDS011;6121;49.810;6.418;2023-07-20T12:09:14;32.35;;;13.50;;
12114;SDS011;6121;49.810;6.418;2023-07-20T12:11:42;29.13;;;12.60;;
12114;SDS011;6121;49.810;6.418;2023-07-20T12:14:12;34.10;;;14.57;;
12114;SDS011;6121;49.810;6.418;2023-07-20T12:16:38;52.03;;;17.93;;
12114;SDS011;6121;49.810;6.418;2023-07-20T12:19:05;46.55;;;16.40;;
12114;SDS011;6121;49.810;6.418;2023-07-20T12:21:33;37.53;;;13.30;;
12114;SDS011;6121;49.810;6.418;2023-07-20T12:24:02;43.38;;;15.15;;
12114;SDS011;6121;49.810;6.418;2023-07-20T12:26:29;43.40;;;15.05;;
12114;SDS011;6121;49.810;6.418;2023-07-20T12:28:56;47.93;;;17.07;;
12114;SDS011;6121;49.810;6.418;2023-07-20T12:31:23;45.97;;;16.33;;
12114;SDS011;6121;49.810;6.418;2023-07-20T12:33:50;44.53;;;16.10;;
12114;SDS011;6121;49.810;6.418;2023-07-20T12:36:17;39.97;;;14.43;;
12114;SDS011;6121;49.810;6.418;2023-07-20T12:38:43;40.53;;;14.30;;
12114;SDS011;6121;49.810;6.418;2023-07-20T12:41:10;42.50;;;15.47;;
12114;SDS011;6121;49.810;6.418;2023-07-20T12:43:45;42.43;;;15.33;;
12114;SDS011;6121;49.810;6.418;2023-07-20T12:46:12;37.08;;;13.98;;
12114;SDS011;6121;49.810;6.418;2023-07-20T12:48:38;35.57;;;13.27;;
12114;SDS011;6121;49.810;6.418;2023-07-20T12:51:06;36.75;;;13.80;;
12114;SDS011;6121;49.810;6.418;2023-07-20T12:53:37;48.17;;;18.08;;
12114;SDS011;6121;49.810;6.418;2023-07-20T12:56:02;36.67;;;14.07;;
12114;SDS011;6121;49.810;6.418;2023-07-20T12:58:29;36.95;;;14.25;;
12114;SDS011;6121;49.810;6.418;2023-07-20T13:00:55;38.33;;;14.38;;
12114;SDS011;6121;49.810;6.418;2023-07-20T13:03:20;34.63;;;13.53;;
12114;SDS011;6121;49.810;6.418;2023-07-20T13:05:47;39.50;;;15.10;;
12114;SDS011;6121;49.810;6.418;2023-07-20T13:08:13;57.47;;;19.05;;
12114;SDS011;6121;49.810;6.418;2023-07-20T13:10:39;48.33;;;15.48;;
12114;SDS011;6121;49.810;6.418;2023-07-20T13:13:05;55.58;;;17.83;;
12114;SDS011;6121;49.810;6.418;2023-07-20T13:15:32;41.45;;;14.40;;
12114;SDS011;6121;49.810;6.418;2023-07-20T13:18:05;46.95;;;16.13;;
12114;SDS011;6121;49.810;6.418;2023-07-20T13:20:31;39.60;;;13.57;;
12114;SDS011;6121;49.810;6.418;2023-07-20T13:22:57;45.43;;;16.17;;
12114;SDS011;6121;49.810;6.418;2023-07-20T13:25:22;39.20;;;13.90;;
12114;SDS011;6121;49.810;6.418;2023-07-20T13:27:48;45.00;;;16.40;;
12114;SDS011;6121;49.810;6.418;2023-07-20T13:30:14;43.75;;;16.20;;
12114;SDS011;6121;49.810;6.418;2023-07-20T13:32:42;40.20;;;14.50;;
12114;SDS011;6121;49.810;6.418;2023-07-20T13:35:09;42.03;;;15.57;;
12114;SDS011;6121;49.810;6.418;2023-07-20T13:37:38;43.60;;;16.42;;
12114;SDS011;6121;49.810;6.418;2023-07-20T13:40:04;38.30;;;14.37;;
12114;SDS011;6121;49.810;6.418;2023-07-20T13:42:34;40.88;;;15.38;;
12114;SDS011;6121;49.810;6.418;2023-07-20T13:45:00;64.93;;;18.30;;
12114;SDS011;6121;49.810;6.418;2023-07-20T13:47:26;49.45;;;16.40;;
12114;SDS011;6121;49.810;6.418;2023-07-20T13:49:53;66.50;;;16.60;;
12114;SDS011;6121;49.810;6.418;2023-07-20T13:52:19;60.47;;;16.55;;
12114;SDS011;6121;49.810;6.418;2023-07-20T13:54:45;41.70;;;14.63;;
12114;SDS011;6121;49.810;6.418;2023-07-20T13:57:12;59.85;;;17.88;;
12114;SDS011;6121;49.810;6.418;2023-07-20T13:59:38;44.17;;;13.07;;
12114;SDS011;6121;49.810;6.418;2023-07-20T14:02:04;77.27;;;17.93;;
12114;SDS011;6121;49.810;6.418;2023-07-20T14:04:30;73.40;;;16.20;;
12114;SDS011;6121;49.810;6.418;2023-07-20T14:06:56;71.57;;;19.80;;
12114;SDS011;6121;49.810;6.418;2023-07-20T14:09:22;78.78;;;18.40;;
12114;SDS011;6121;49.810;6.418;2023-07-20T14:11:48;71.25;;;16.15;;
12114;SDS011;6121;49.810;6.418;2023-07-20T14:14:14;71.55;;;19.33;;
12114;SDS011;6121;49.810;6.418;2023-07-20T14:16:40;56.67;;;16.73;;
12114;SDS011;6121;49.810;6.418;2023-07-20T14:19:06;54.53;;;15.50;;
12114;SDS011;6121;49.810;6.418;2023-07-20T14:21:32;47.60;;;14.60;;
12114;SDS011;6121;49.810;6.418;2023-07-20T14:23:58;49.78;;;15.50;;
12114;SDS011;6121;49.810;6.418;2023-07-20T14:26:24;48.70;;;15.45;;
12114;SDS011;6121;49.810;6.418;2023-07-20T14:28:50;57.53;;;15.17;;
12114;SDS011;6121;49.810;6.418;2023-07-20T14:31:16;63.35;;;17.10;;
12114;SDS011;6121;49.810;6.418;2023-07-20T14:33:42;51.47;;;15.47;;
12114;SDS011;6121;49.810;6.418;2023-07-20T14:36:07;49.63;;;15.95;;
12114;SDS011;6121;49.810;6.418;2023-07-20T14:38:34;45.97;;;15.27;;
12114;SDS011;6121;49.810;6.418;2023-07-20T14:41:00;40.85;;;13.98;;
12114;SDS011;6121;49.810;6.418;2023-07-20T14:43:26;46.35;;;16.20;;
12114;SDS011;6121;49.810;6.418;2023-07-20T14:45:52;40.35;;;14.20;;
12114;SDS011;6121;49.810;6.418;2023-07-20T14:48:19;45.40;;;16.10;;
12114;SDS011;6121;49.810;6.418;2023-07-20T14:50:45;43.53;;;15.53;;
12114;SDS011;6121;49.810;6.418;2023-07-20T14:53:15;45.05;;;15.95;;
12114;SDS011;6121;49.810;6.418;2023-07-20T14:55:41;36.97;;;13.60;;
12114;SDS011;6121;49.810;6.418;2023-07-20T14:58:07;55.43;;;16.43;;